Bath, New Hampshire
Current Conditions -  °F | °C
As of 3:52 AM on Wednesday 28 Jan 2015 (Local Time) from KHIE Reporting Station
Overcast Overcast  
Wind Chill: -8°   Ceiling: 5000
Heat Index:   Visibility: 10mi
Dew Point:   Wind: 10mph
Humidity: 73%   Direction: 340°NNW
Pressure: 29.78"   Gusts: NA
Location:  44.17°N, 71.97°W
Report Text: KHIE 280852Z AUTO 34009KT 10SM OVC050 M14/M18 A2978 RMK AO2 SNE12 SLP112 P0000 60000 T11391178 52009
Loading
Personal Weather Stations






























Interactive Weather Map New forecast layout! Learn more

10-Day Weather Forecast

Advertisements
Track Severe Weather on mobile